createdAt,value
2017-10-29T00:02:12.533Z,7.50
2017-10-29T00:04:40.076Z,7.60
2017-10-29T00:07:08.396Z,7.50
2017-10-29T00:09:35.926Z,7.50
2017-10-29T00:12:04.240Z,7.60
2017-10-29T00:14:31.778Z,7.60
2017-10-29T00:16:59.311Z,7.70
2017-10-29T00:19:27.633Z,7.70
2017-10-29T00:21:55.169Z,7.60
2017-10-29T00:24:22.725Z,7.70
2017-10-29T00:26:50.255Z,7.70
2017-10-29T00:29:17.786Z,7.70
2017-10-29T00:31:45.341Z,7.80
2017-10-29T00:34:12.890Z,7.70
2017-10-29T00:36:40.437Z,7.80
2017-10-29T00:39:07.952Z,7.80
2017-10-29T00:41:36.264Z,7.80
2017-10-29T00:44:03.789Z,7.80
2017-10-29T00:46:32.110Z,7.90
2017-10-29T00:48:59.628Z,7.80
2017-10-29T00:51:27.175Z,7.80
2017-10-29T00:53:54.745Z,7.80
2017-10-29T00:56:22.262Z,7.80
2017-10-29T00:58:49.807Z,7.80
2017-10-29T01:01:17.345Z,7.80
2017-10-29T01:03:44.902Z,7.90
2017-10-29T01:06:13.194Z,7.80
2017-10-29T01:08:41.908Z,7.90
2017-10-29T01:11:09.580Z,7.90
2017-10-29T01:13:38.239Z,7.80
2017-10-29T01:16:10.387Z,7.80
2017-10-29T01:18:37.960Z,7.80
2017-10-29T01:21:05.484Z,7.80
2017-10-29T01:23:34.311Z,7.80
2017-10-29T01:26:02.685Z,7.80
2017-10-29T01:28:30.212Z,7.80
2017-10-29T01:30:57.756Z,7.90
2017-10-29T01:33:25.293Z,8.00
2017-10-29T01:35:53.593Z,8.00
2017-10-29T01:38:21.117Z,7.90
2017-10-29T01:40:48.672Z,8.00
2017-10-29T01:43:16.196Z,7.90
2017-10-29T01:45:43.732Z,8.00
2017-10-29T01:48:11.252Z,8.00
2017-10-29T01:50:39.605Z,8.00
2017-10-29T01:53:07.153Z,8.00
2017-10-29T01:55:34.688Z,8.00
2017-10-29T01:58:02.245Z,8.00
2017-10-29T02:00:29.761Z,8.00
2017-10-29T02:02:57.301Z,8.00
2017-10-29T02:05:24.837Z,8.00
2017-10-29T02:07:52.363Z,8.00
2017-10-29T02:10:20.687Z,7.90
2017-10-29T02:12:48.221Z,7.90
2017-10-29T02:15:15.882Z,7.90
2017-10-29T02:17:43.432Z,7.90
2017-10-29T02:20:10.986Z,7.90
2017-10-29T02:22:39.273Z,7.90
2017-10-29T02:25:06.812Z,7.90
2017-10-29T02:27:35.114Z,7.90
2017-10-29T02:30:02.671Z,7.90
2017-10-29T02:32:30.200Z,7.90
2017-10-29T02:34:58.540Z,7.90
2017-10-29T02:37:26.061Z,7.90
2017-10-29T02:39:53.600Z,7.90
2017-10-29T02:42:21.926Z,7.90
2017-10-29T02:44:49.453Z,7.90
2017-10-29T02:47:17.762Z,8.00
2017-10-29T02:49:45.321Z,8.00
2017-10-29T02:52:12.856Z,8.00
2017-10-29T02:54:40.386Z,8.00
2017-10-29T02:57:07.943Z,8.00
2017-10-29T02:59:35.469Z,8.00
2017-10-29T03:02:03.020Z,8.10
2017-10-29T03:04:30.561Z,8.10
2017-10-29T03:06:58.106Z,8.10
2017-10-29T03:09:26.688Z,8.10
2017-10-29T03:11:55.100Z,8.00
2017-10-29T03:14:22.618Z,8.10
2017-10-29T03:16:50.939Z,8.10
2017-10-29T03:19:18.461Z,8.10
2017-10-29T03:21:46.765Z,8.10
2017-10-29T03:24:14.284Z,8.10
2017-10-29T03:26:42.604Z,8.20
2017-10-29T03:29:10.122Z,8.10
2017-10-29T03:31:38.444Z,8.20
2017-10-29T03:34:05.971Z,8.20
2017-10-29T03:36:34.285Z,8.20
2017-10-29T03:39:01.811Z,8.20
2017-10-29T03:41:29.358Z,8.20
2017-10-29T03:43:57.657Z,8.20
2017-10-29T03:46:25.197Z,8.20
2017-10-29T03:48:53.504Z,8.20
2017-10-29T03:51:21.057Z,8.20
2017-10-29T03:53:48.591Z,8.20
2017-10-29T03:56:16.885Z,8.20
2017-10-29T03:58:45.199Z,8.20
2017-10-29T04:01:12.729Z,8.20
2017-10-29T04:03:40.273Z,8.20
2017-10-29T04:06:08.502Z,8.20
2017-10-29T04:08:36.754Z,8.20
2017-10-29T04:11:04.290Z,8.20
2017-10-29T04:13:31.853Z,8.30
2017-10-29T04:15:59.383Z,8.20
2017-10-29T04:18:26.969Z,8.20
2017-10-29T04:20:55.249Z,8.20
2017-10-29T04:23:23.574Z,8.20
2017-10-29T04:25:51.105Z,8.20
2017-10-29T04:28:18.669Z,8.20
2017-10-29T04:30:46.220Z,8.20
2017-10-29T04:33:13.741Z,8.10
2017-10-29T04:35:41.308Z,8.10
2017-10-29T04:38:09.606Z,8.10
2017-10-29T04:40:37.149Z,8.10
2017-10-29T04:43:05.442Z,8.00
2017-10-29T04:45:32.982Z,8.00
2017-10-29T04:48:01.284Z,8.00
2017-10-29T04:50:28.850Z,8.00
2017-10-29T04:52:56.398Z,8.00
2017-10-29T04:55:23.935Z,8.00
2017-10-29T04:57:51.481Z,8.00
2017-10-29T05:00:19.015Z,8.10
2017-10-29T05:02:46.553Z,8.10
2017-10-29T05:05:14.128Z,8.10
2017-10-29T05:07:41.662Z,8.10
2017-10-29T05:10:09.968Z,8.20
2017-10-29T05:12:37.524Z,8.20
2017-10-29T05:15:05.062Z,8.10
2017-10-29T05:17:32.614Z,8.20
2017-10-29T05:20:00.902Z,8.20
2017-10-29T05:22:28.421Z,8.20
2017-10-29T05:24:55.968Z,8.20
2017-10-29T05:27:23.482Z,8.20
2017-10-29T05:29:53.633Z,8.10
2017-10-29T05:32:21.163Z,8.10
2017-10-29T05:34:48.703Z,8.10
2017-10-29T05:37:16.249Z,8.10
2017-10-29T05:39:43.788Z,8.00
2017-10-29T05:42:11.337Z,8.00
2017-10-29T05:44:38.865Z,8.10
2017-10-29T05:47:06.443Z,8.10
2017-10-29T05:49:33.978Z,8.10
2017-10-29T05:52:01.563Z,8.10
2017-10-29T05:54:29.114Z,8.10
2017-10-29T05:56:57.938Z,8.10
2017-10-29T05:59:25.533Z,8.20
2017-10-29T06:01:53.078Z,8.30
2017-10-29T06:04:21.849Z,8.30
2017-10-29T06:06:49.405Z,8.30
2017-10-29T06:09:17.029Z,8.40
2017-10-29T06:11:44.564Z,8.40
2017-10-29T06:14:12.102Z,8.50
2017-10-29T06:16:40.402Z,8.60
2017-10-29T06:19:07.941Z,8.60
2017-10-29T06:21:36.232Z,8.80
2017-10-29T06:24:03.815Z,8.80
2017-10-29T06:26:31.336Z,8.90
2017-10-29T06:28:59.641Z,8.90
2017-10-29T06:31:27.184Z,8.80
2017-10-29T06:33:55.616Z,8.90
2017-10-29T06:36:23.161Z,8.90
2017-10-29T06:38:50.697Z,8.90
2017-10-29T06:41:18.234Z,8.80
2017-10-29T06:43:45.784Z,8.80
2017-10-29T06:46:13.323Z,8.90
2017-10-29T06:48:40.843Z,8.90
2017-10-29T06:51:08.384Z,9.00
2017-10-29T06:53:36.713Z,9.00
2017-10-29T06:56:04.265Z,9.00
2017-10-29T06:58:31.812Z,9.10
2017-10-29T07:00:59.345Z,9.20
2017-10-29T07:03:27.659Z,9.20
2017-10-29T07:05:55.192Z,9.20
2017-10-29T07:08:22.718Z,9.30
2017-10-29T07:10:51.033Z,9.50
2017-10-29T07:13:18.557Z,9.40
2017-10-29T07:15:47.630Z,9.50
2017-10-29T07:18:15.177Z,9.60
2017-10-29T07:20:42.738Z,9.60
2017-10-29T07:23:10.261Z,9.70
2017-10-29T07:25:37.796Z,9.70
2017-10-29T07:28:06.094Z,9.70
2017-10-29T07:30:33.673Z,9.70
2017-10-29T07:33:01.440Z,9.70
2017-10-29T07:35:29.024Z,9.70
2017-10-29T07:37:56.586Z,9.70
2017-10-29T07:40:24.120Z,9.70
2017-10-29T07:42:51.661Z,9.70
2017-10-29T07:45:19.340Z,9.60
2017-10-29T07:47:49.488Z,9.50
2017-10-29T07:50:17.129Z,9.50
2017-10-29T07:52:44.673Z,9.50
2017-10-29T07:55:12.966Z,9.60
2017-10-29T07:57:41.287Z,9.60
2017-10-29T08:00:08.817Z,9.50
2017-10-29T08:02:36.369Z,9.50
2017-10-29T08:05:04.678Z,9.50
2017-10-29T08:07:32.219Z,9.50
2017-10-29T08:09:59.773Z,9.50
2017-10-29T08:12:27.299Z,9.60
2017-10-29T08:14:54.842Z,9.50
2017-10-29T08:17:22.385Z,9.50
2017-10-29T08:19:49.935Z,9.50
2017-10-29T08:22:17.699Z,9.60
2017-10-29T08:24:45.263Z,9.60
2017-10-29T08:27:12.790Z,9.60
2017-10-29T08:29:45.956Z,9.60
2017-10-29T08:32:13.829Z,9.60
2017-10-29T08:34:42.145Z,9.70
2017-10-29T08:37:09.692Z,9.70
2017-10-29T08:39:37.221Z,9.70
2017-10-29T08:42:04.778Z,9.80
2017-10-29T08:44:33.084Z,9.90
2017-10-29T08:47:01.415Z,9.90
2017-10-29T08:49:28.956Z,9.90
2017-10-29T08:51:56.529Z,10.00
2017-10-29T08:54:24.053Z,10.00
2017-10-29T08:56:51.576Z,9.90
2017-10-29T08:59:19.122Z,9.90
2017-10-29T09:01:46.669Z,9.90
2017-10-29T09:04:14.217Z,9.80
2017-10-29T09:06:41.744Z,9.70
2017-10-29T09:09:09.302Z,9.70
2017-10-29T09:11:36.859Z,9.70
2017-10-29T09:14:04.405Z,9.80
2017-10-29T09:16:33.295Z,9.80
2017-10-29T09:19:01.277Z,9.80
2017-10-29T09:21:29.603Z,9.90
2017-10-29T09:23:57.139Z,9.90
2017-10-29T09:26:24.684Z,9.90
2017-10-29T09:28:52.985Z,9.90
2017-10-29T09:31:20.526Z,9.90
2017-10-29T09:33:49.680Z,9.90
2017-10-29T09:36:17.250Z,9.90
2017-10-29T09:38:44.777Z,9.90
2017-10-29T09:41:12.366Z,10.00
2017-10-29T09:43:39.902Z,10.00
2017-10-29T09:46:08.305Z,10.10
2017-10-29T09:48:36.616Z,10.20
2017-10-29T09:51:04.137Z,10.20
2017-10-29T09:53:32.454Z,10.30
2017-10-29T09:55:59.990Z,10.30
2017-10-29T09:58:27.556Z,10.30
2017-10-29T10:00:55.077Z,10.40
2017-10-29T10:03:22.644Z,10.40
2017-10-29T10:05:50.977Z,10.50
2017-10-29T10:08:19.943Z,10.50
2017-10-29T10:10:47.498Z,10.50
2017-10-29T10:13:15.061Z,10.50
2017-10-29T10:15:42.665Z,10.40
2017-10-29T10:18:10.210Z,10.50
2017-10-29T10:20:37.802Z,10.50
2017-10-29T10:23:06.430Z,10.50
2017-10-29T10:25:33.970Z,10.50
2017-10-29T10:28:01.533Z,10.50
2017-10-29T10:30:29.071Z,10.60
2017-10-29T10:32:57.404Z,10.20
2017-10-29T10:35:24.945Z,10.20
2017-10-29T10:37:52.512Z,9.80
2017-10-29T10:40:20.033Z,9.60
2017-10-29T10:42:48.350Z,9.10
2017-10-29T10:45:15.880Z,9.10
2017-10-29T10:47:43.427Z,9.00
2017-10-29T10:50:11.733Z,8.70
2017-10-29T10:52:39.261Z,8.70
2017-10-29T10:55:07.582Z,8.70
2017-10-29T10:57:35.114Z,8.70
2017-10-29T11:00:02.662Z,8.70
2017-10-29T11:02:30.186Z,8.70
2017-10-29T11:04:57.738Z,8.70
2017-10-29T11:07:25.270Z,8.80
2017-10-29T11:09:52.837Z,8.90
2017-10-29T11:12:21.126Z,9.00
2017-10-29T11:14:48.675Z,9.00
2017-10-29T11:17:16.327Z,9.10
2017-10-29T11:19:43.896Z,9.10
2017-10-29T11:22:11.413Z,9.20
2017-10-29T11:24:40.294Z,9.30
2017-10-29T11:27:08.605Z,9.50
2017-10-29T11:29:36.505Z,9.50
2017-10-29T11:32:04.082Z,9.70
2017-10-29T11:34:31.614Z,10.10
2017-10-29T11:36:59.163Z,10.30
2017-10-29T11:39:26.693Z,10.70
2017-10-29T11:41:55.031Z,12.60
2017-10-29T11:44:22.574Z,12.60
2017-10-29T11:46:50.143Z,12.30
2017-10-29T11:49:17.669Z,11.80
2017-10-29T11:51:45.225Z,11.40
2017-10-29T11:54:12.766Z,11.10
2017-10-29T11:56:40.313Z,10.70
2017-10-29T11:59:08.625Z,10.30
2017-10-29T12:01:36.159Z,10.30
2017-10-29T12:04:04.483Z,10.10
2017-10-29T12:06:32.033Z,10.10
2017-10-29T12:08:59.592Z,10.00
2017-10-29T12:11:27.174Z,10.20
2017-10-29T12:13:54.726Z,10.80
2017-10-29T12:16:22.257Z,11.40
2017-10-29T12:18:49.820Z,11.20
2017-10-29T12:21:17.391Z,11.00
2017-10-29T12:23:44.954Z,10.80
2017-10-29T12:26:12.614Z,10.60
2017-10-29T12:28:40.162Z,10.30
2017-10-29T12:31:07.892Z,10.00
2017-10-29T12:33:35.446Z,9.70
2017-10-29T12:36:03.056Z,9.50
2017-10-29T12:38:30.634Z,9.30
2017-10-29T12:40:58.949Z,9.10
2017-10-29T12:43:26.477Z,9.10
2017-10-29T12:45:54.021Z,9.10
2017-10-29T12:48:21.542Z,9.00
2017-10-29T12:50:49.092Z,8.90
2017-10-29T12:53:16.635Z,8.80
2017-10-29T12:55:44.926Z,8.90
2017-10-29T12:58:12.495Z,8.90
2017-10-29T13:00:40.031Z,8.90
2017-10-29T13:03:07.576Z,9.00
2017-10-29T13:05:35.106Z,9.00
2017-10-29T13:08:03.289Z,9.00
2017-10-29T13:10:30.820Z,9.00
2017-10-29T13:12:59.144Z,9.20
2017-10-29T13:15:26.683Z,9.10
2017-10-29T13:17:54.240Z,9.30
2017-10-29T13:20:21.821Z,9.30
2017-10-29T13:22:49.369Z,9.30
2017-10-29T13:25:16.905Z,9.50
2017-10-29T13:27:44.499Z,9.40
2017-10-29T13:30:12.057Z,9.30
2017-10-29T13:32:39.606Z,9.40
2017-10-29T13:35:07.182Z,9.40
2017-10-29T13:37:34.706Z,9.60
2017-10-29T13:40:02.266Z,9.50
2017-10-29T13:42:29.801Z,9.50
2017-10-29T13:44:58.114Z,9.40
2017-10-29T13:47:25.643Z,9.40
2017-10-29T13:49:53.994Z,9.10
2017-10-29T13:52:21.525Z,9.10
2017-10-29T13:54:49.832Z,9.00
2017-10-29T13:57:17.401Z,9.00
2017-10-29T13:59:44.959Z,9.00
2017-10-29T14:02:12.497Z,9.50
2017-10-29T14:04:40.082Z,10.40
2017-10-29T14:07:07.743Z,11.30
2017-10-29T14:09:35.368Z,12.10
2017-10-29T14:12:03.229Z,12.80
2017-10-29T14:14:31.548Z,13.30
2017-10-29T14:16:59.092Z,13.30
2017-10-29T14:19:26.646Z,13.70
2017-10-29T14:21:54.216Z,14.10
2017-10-29T14:24:21.760Z,14.20
2017-10-29T14:26:50.078Z,14.40
2017-10-29T14:29:17.624Z,14.40
2017-10-29T14:31:45.184Z,14.50
2017-10-29T14:34:12.732Z,14.20
2017-10-29T14:36:40.286Z,14.20
2017-10-29T14:39:07.858Z,14.20
2017-10-29T14:41:35.421Z,14.50
2017-10-29T14:44:03.077Z,14.70
2017-10-29T14:46:30.644Z,14.50
2017-10-29T14:48:58.205Z,14.20
2017-10-29T14:51:26.517Z,12.80
2017-10-29T14:53:54.093Z,12.80
2017-10-29T14:56:21.695Z,12.30
2017-10-29T14:58:49.779Z,11.80
2017-10-29T15:01:18.355Z,11.10
2017-10-29T15:03:46.307Z,11.10
2017-10-29T15:06:13.854Z,10.70
2017-10-29T15:08:41.409Z,10.60
2017-10-29T15:11:09.232Z,10.50
2017-10-29T15:13:37.569Z,10.40
2017-10-29T15:16:05.136Z,10.40
2017-10-29T15:18:32.708Z,10.40
2017-10-29T15:21:00.256Z,10.40
2017-10-29T15:23:27.798Z,10.10
2017-10-29T15:25:56.149Z,9.90
2017-10-29T15:28:23.814Z,9.90
2017-10-29T15:30:52.168Z,9.50
2017-10-29T15:33:19.702Z,9.40
2017-10-29T15:35:48.063Z,9.10
2017-10-29T15:38:15.622Z,9.10
2017-10-29T15:40:43.219Z,8.90
2017-10-29T15:43:10.934Z,8.70
2017-10-29T15:45:38.469Z,8.70
2017-10-29T15:48:06.125Z,8.60
2017-10-29T15:50:33.633Z,8.30
2017-10-29T15:53:01.957Z,8.20
2017-10-29T15:55:29.482Z,8.10
2017-10-29T15:57:57.827Z,8.10
2017-10-29T16:00:25.397Z,8.00
2017-10-29T16:02:53.731Z,8.00
2017-10-29T16:05:21.400Z,8.00
2017-10-29T16:07:48.930Z,8.00
2017-10-29T16:10:16.490Z,8.00
2017-10-29T16:12:44.009Z,8.00
2017-10-29T16:15:12.322Z,7.80
2017-10-29T16:17:39.846Z,7.70
2017-10-29T16:20:07.402Z,7.70
2017-10-29T16:22:35.260Z,7.60
2017-10-29T16:25:02.805Z,7.60
2017-10-29T16:27:30.339Z,7.60
2017-10-29T16:29:57.882Z,7.60
2017-10-29T16:32:25.436Z,7.60
2017-10-29T16:34:52.960Z,7.60
2017-10-29T16:37:21.295Z,7.60
2017-10-29T16:39:48.829Z,7.60
2017-10-29T16:42:16.376Z,7.60
2017-10-29T16:44:43.896Z,7.60
2017-10-29T16:47:12.765Z,7.50
2017-10-29T16:49:40.301Z,7.50
2017-10-29T16:52:07.859Z,7.50
2017-10-29T16:54:35.405Z,7.40
2017-10-29T16:57:02.959Z,7.30
2017-10-29T16:59:30.533Z,7.30
2017-10-29T17:01:58.181Z,7.30
2017-10-29T17:04:25.848Z,7.20
2017-10-29T17:06:53.407Z,7.20
2017-10-29T17:09:20.981Z,7.20
2017-10-29T17:11:48.523Z,7.10
2017-10-29T17:14:16.045Z,7.10
2017-10-29T17:16:44.353Z,7.00
2017-10-29T17:19:11.898Z,7.00
2017-10-29T17:21:40.201Z,7.10
2017-10-29T17:24:07.733Z,7.10
2017-10-29T17:26:36.056Z,7.10
2017-10-29T17:29:03.625Z,7.10
2017-10-29T17:31:31.165Z,7.20
2017-10-29T17:33:59.007Z,7.10
2017-10-29T17:36:26.563Z,7.10
2017-10-29T17:38:54.192Z,7.00
2017-10-29T17:41:21.733Z,7.00
2017-10-29T17:43:50.882Z,6.80
2017-10-29T17:46:18.481Z,6.60
2017-10-29T17:48:46.026Z,6.50
2017-10-29T17:51:14.278Z,6.40
2017-10-29T17:53:42.574Z,6.30
2017-10-29T17:56:10.148Z,6.30
2017-10-29T17:58:37.694Z,6.40
2017-10-29T18:01:05.254Z,6.40
2017-10-29T18:03:32.825Z,6.30
2017-10-29T18:06:00.369Z,6.10
2017-10-29T18:08:27.914Z,5.90
2017-10-29T18:10:56.247Z,5.60
2017-10-29T18:13:23.802Z,5.60
2017-10-29T18:15:51.396Z,5.60
2017-10-29T18:18:18.954Z,5.50
2017-10-29T18:20:46.505Z,5.40
2017-10-29T18:23:14.054Z,5.60
2017-10-29T18:25:42.378Z,5.60
2017-10-29T18:28:09.902Z,5.60
2017-10-29T18:30:38.237Z,5.60
2017-10-29T18:33:05.778Z,5.60
2017-10-29T18:35:34.091Z,5.90
2017-10-29T18:38:01.619Z,5.90
2017-10-29T18:40:29.179Z,5.90
2017-10-29T18:42:56.719Z,5.80
2017-10-29T18:45:24.245Z,5.90
2017-10-29T18:47:52.559Z,5.80
2017-10-29T18:50:20.094Z,5.80
2017-10-29T18:52:48.409Z,5.70
2017-10-29T18:55:15.943Z,5.60
2017-10-29T18:57:43.502Z,5.70
2017-10-29T19:00:11.081Z,5.60
2017-10-29T19:02:38.642Z,5.60
2017-10-29T19:05:06.200Z,5.80
2017-10-29T19:07:33.769Z,5.90
2017-10-29T19:10:01.294Z,5.80
2017-10-29T19:12:29.614Z,5.80
2017-10-29T19:14:57.191Z,5.70
2017-10-29T19:17:24.741Z,5.80
2017-10-29T19:19:52.288Z,5.70
2017-10-29T19:22:19.842Z,5.70
2017-10-29T19:24:47.397Z,5.60
2017-10-29T19:27:14.959Z,5.70
2017-10-29T19:29:42.545Z,5.80
2017-10-29T19:32:10.127Z,5.90
2017-10-29T19:34:37.661Z,5.90
2017-10-29T19:37:05.270Z,6.00
2017-10-29T19:39:32.822Z,5.90
2017-10-29T19:42:01.237Z,5.80
2017-10-29T19:44:28.762Z,5.80
2017-10-29T19:46:57.079Z,5.60
2017-10-29T19:49:24.646Z,5.60
2017-10-29T19:51:52.193Z,5.50
2017-10-29T19:54:19.737Z,5.50
2017-10-29T19:56:47.262Z,5.40
2017-10-29T19:59:14.818Z,5.30
2017-10-29T20:01:42.349Z,5.30
2017-10-29T20:04:09.997Z,5.10
2017-10-29T20:06:37.553Z,5.10
2017-10-29T20:09:05.121Z,5.00
2017-10-29T20:11:33.419Z,5.00
2017-10-29T20:14:01.005Z,4.90
2017-10-29T20:16:28.526Z,4.90
2017-10-29T20:18:56.835Z,4.90
2017-10-29T20:21:24.379Z,4.80
2017-10-29T20:23:51.970Z,4.80
2017-10-29T20:26:19.521Z,4.80
2017-10-29T20:28:47.046Z,4.80
2017-10-29T20:31:15.369Z,4.60
2017-10-29T20:33:42.893Z,4.60
2017-10-29T20:36:11.190Z,4.50
2017-10-29T20:38:38.737Z,4.50
2017-10-29T20:41:07.050Z,4.50
2017-10-29T20:43:34.844Z,4.40
2017-10-29T20:46:02.463Z,4.50
2017-10-29T20:48:30.025Z,4.50
2017-10-29T20:50:57.545Z,4.40
2017-10-29T20:53:25.865Z,4.30
2017-10-29T20:55:53.458Z,4.30
2017-10-29T20:58:20.988Z,4.30
2017-10-29T21:00:48.545Z,4.20
2017-10-29T21:03:17.145Z,4.20
2017-10-29T21:05:45.442Z,4.10
2017-10-29T21:08:13.031Z,4.10
2017-10-29T21:10:40.575Z,4.10
2017-10-29T21:13:08.125Z,4.10
2017-10-29T21:15:35.668Z,4.20
2017-10-29T21:18:03.234Z,4.20
2017-10-29T21:20:31.833Z,4.10
2017-10-29T21:22:59.356Z,4.30
2017-10-29T21:25:27.662Z,4.40
2017-10-29T21:27:55.210Z,4.30
2017-10-29T21:30:23.680Z,4.40
2017-10-29T21:32:51.283Z,4.40
2017-10-29T21:35:18.812Z,4.30
2017-10-29T21:37:46.361Z,4.30
2017-10-29T21:40:13.900Z,4.30
2017-10-29T21:42:41.420Z,4.30
2017-10-29T21:45:09.731Z,4.20
2017-10-29T21:47:37.316Z,4.20
2017-10-29T21:50:04.851Z,4.30
2017-10-29T21:52:33.182Z,4.30
2017-10-29T21:55:00.772Z,4.30
2017-10-29T21:57:28.382Z,4.30
2017-10-29T21:59:55.941Z,4.30
2017-10-29T22:02:23.513Z,4.30
2017-10-29T22:04:51.827Z,4.10
2017-10-29T22:07:19.353Z,4.10
2017-10-29T22:09:46.909Z,4.20
2017-10-29T22:12:14.465Z,4.10
2017-10-29T22:14:41.990Z,4.00
2017-10-29T22:17:09.542Z,3.80
2017-10-29T22:19:37.117Z,3.70
2017-10-29T22:22:04.652Z,3.80
2017-10-29T22:24:32.193Z,3.70
2017-10-29T22:26:59.745Z,3.50
2017-10-29T22:29:27.269Z,3.50
2017-10-29T22:31:54.819Z,3.60
2017-10-29T22:34:22.350Z,3.60
2017-10-29T22:36:50.978Z,3.60
2017-10-29T22:39:18.628Z,3.60
2017-10-29T22:41:46.150Z,3.70
2017-10-29T22:44:14.465Z,3.70
2017-10-29T22:46:41.994Z,3.70
2017-10-29T22:49:10.310Z,3.60
2017-10-29T22:51:37.855Z,3.60
2017-10-29T22:54:05.405Z,3.70
2017-10-29T22:56:32.954Z,3.60
2017-10-29T22:59:00.489Z,3.50
2017-10-29T23:01:28.013Z,3.30
2017-10-29T23:03:56.671Z,3.10
2017-10-29T23:06:39.233Z,3.20
2017-10-29T23:09:07.558Z,3.10
2017-10-29T23:11:39.167Z,3.10
2017-10-29T23:14:08.976Z,3.10
2017-10-29T23:16:38.015Z,3.10
2017-10-29T23:19:06.492Z,3.00
2017-10-29T23:21:34.924Z,3.00
2017-10-29T23:24:02.449Z,3.00
2017-10-29T23:26:30.764Z,3.10
2017-10-29T23:28:58.285Z,3.10
2017-10-29T23:31:26.597Z,3.20
2017-10-29T23:33:54.138Z,3.10
2017-10-29T23:36:22.030Z,3.20
2017-10-29T23:38:49.559Z,3.10
2017-10-29T23:41:17.092Z,3.00
2017-10-29T23:43:44.655Z,2.90
2017-10-29T23:46:12.180Z,2.90
2017-10-29T23:48:43.491Z,2.80
2017-10-29T23:51:11.027Z,2.80
2017-10-29T23:53:38.578Z,2.80
2017-10-29T23:56:06.089Z,2.70
2017-10-29T23:58:33.700Z,2.60
